sensor_id;sensor_type;location;lat;lon;timestamp;temperature;humidity
38428;DHT22;24211;49.980;19.776;2022-09-09T00:01:37;20.90;99.90
38428;DHT22;24211;49.980;19.776;2022-09-09T00:04:28;20.90;99.90
38428;DHT22;24211;49.980;19.776;2022-09-09T00:10:19;20.90;99.90
38428;DHT22;24211;49.980;19.776;2022-09-09T00:13:46;20.80;99.90
38428;DHT22;24211;49.980;19.776;2022-09-09T00:16:15;20.80;99.90
38428;DHT22;24211;49.980;19.776;2022-09-09T00:18:50;20.80;99.90
38428;DHT22;24211;49.980;19.776;2022-09-09T00:21:33;20.70;99.90
38428;DHT22;24211;49.980;19.776;2022-09-09T00:26:58;20.80;99.90
38428;DHT22;24211;49.980;19.776;2022-09-09T00:29:38;20.70;99.90
38428;DHT22;24211;49.980;19.776;2022-09-09T00:32:32;20.70;99.90
38428;DHT22;24211;49.980;19.776;2022-09-09T00:38:08;20.70;99.90
38428;DHT22;24211;49.980;19.776;2022-09-09T00:41:17;20.70;99.90
38428;DHT22;24211;49.980;19.776;2022-09-09T00:56:14;20.70;99.90
38428;DHT22;24211;49.980;19.776;2022-09-09T00:58:54;20.70;99.90
38428;DHT22;24211;49.980;19.776;2022-09-09T01:01:32;20.60;99.90
38428;DHT22;24211;49.980;19.776;2022-09-09T01:03:59;20.60;99.90
38428;DHT22;24211;49.980;19.776;2022-09-09T01:06:31;20.60;99.90
38428;DHT22;24211;49.980;19.776;2022-09-09T01:12:12;20.60;99.90
38428;DHT22;24211;49.980;19.776;2022-09-09T01:14:55;20.60;99.90
38428;DHT22;24211;49.980;19.776;2022-09-09T01:17:34;20.60;99.90
38428;DHT22;24211;49.980;19.776;2022-09-09T01:20:26;20.60;99.90
38428;DHT22;24211;49.980;19.776;2022-09-09T01:23:37;20.50;99.90
38428;DHT22;24211;49.980;19.776;2022-09-09T01:26:25;20.50;99.90
38428;DHT22;24211;49.980;19.776;2022-09-09T01:29:01;20.50;99.90
38428;DHT22;24211;49.980;19.776;2022-09-09T01:34:39;20.50;99.90
38428;DHT22;24211;49.980;19.776;2022-09-09T01:37:09;20.40;99.90
38428;DHT22;24211;49.980;19.776;2022-09-09T01:39:42;20.40;99.90
38428;DHT22;24211;49.980;19.776;2022-09-09T01:42:16;20.40;99.90
38428;DHT22;24211;49.980;19.776;2022-09-09T01:44:44;20.40;99.90
38428;DHT22;24211;49.980;19.776;2022-09-09T01:47:12;20.40;99.90
38428;DHT22;24211;49.980;19.776;2022-09-09T01:49:58;20.30;99.90
38428;DHT22;24211;49.980;19.776;2022-09-09T01:52:29;20.30;99.90
38428;DHT22;24211;49.980;19.776;2022-09-09T01:54:58;20.20;99.90
38428;DHT22;24211;49.980;19.776;2022-09-09T01:57:43;20.20;99.90
38428;DHT22;24211;49.980;19.776;2022-09-09T02:00:22;20.20;99.90
38428;DHT22;24211;49.980;19.776;2022-09-09T02:03:20;20.10;99.90
38428;DHT22;24211;49.980;19.776;2022-09-09T02:08:53;20.00;99.90
38428;DHT22;24211;49.980;19.776;2022-09-09T02:11:27;20.00;99.90
38428;DHT22;24211;49.980;19.776;2022-09-09T02:14:19;20.00;99.90
38428;DHT22;24211;49.980;19.776;2022-09-09T02:16:59;19.90;99.90
38428;DHT22;24211;49.980;19.776;2022-09-09T02:20:15;19.90;99.90
38428;DHT22;24211;49.980;19.776;2022-09-09T02:22:55;19.80;99.90
38428;DHT22;24211;49.980;19.776;2022-09-09T02:25:26;19.80;99.90
38428;DHT22;24211;49.980;19.776;2022-09-09T02:28:08;19.80;99.90
38428;DHT22;24211;49.980;19.776;2022-09-09T02:30:38;19.80;99.90
38428;DHT22;24211;49.980;19.776;2022-09-09T02:33:09;19.70;99.90
38428;DHT22;24211;49.980;19.776;2022-09-09T02:35:45;19.70;99.90
38428;DHT22;24211;49.980;19.776;2022-09-09T02:38:18;19.60;99.90
38428;DHT22;24211;49.980;19.776;2022-09-09T02:40:58;19.60;99.90
38428;DHT22;24211;49.980;19.776;2022-09-09T02:43:31;19.60;99.90
38428;DHT22;24211;49.980;19.776;2022-09-09T02:46:24;19.60;99.90
38428;DHT22;24211;49.980;19.776;2022-09-09T02:49:08;19.60;99.90
38428;DHT22;24211;49.980;19.776;2022-09-09T02:54:47;19.50;99.90
38428;DHT22;24211;49.980;19.776;2022-09-09T02:57:28;19.50;99.90
38428;DHT22;24211;49.980;19.776;2022-09-09T03:00:01;19.50;99.90
38428;DHT22;24211;49.980;19.776;2022-09-09T03:02:32;19.50;99.90
38428;DHT22;24211;49.980;19.776;2022-09-09T03:05:06;19.50;99.90
38428;DHT22;24211;49.980;19.776;2022-09-09T03:07:33;19.50;99.90
38428;DHT22;24211;49.980;19.776;2022-09-09T03:10:02;19.40;99.90
38428;DHT22;24211;49.980;19.776;2022-09-09T03:12:29;19.40;99.90
38428;DHT22;24211;49.980;19.776;2022-09-09T03:14:57;19.40;99.90
38428;DHT22;24211;49.980;19.776;2022-09-09T03:17:24;19.40;99.90
38428;DHT22;24211;49.980;19.776;2022-09-09T03:19:54;19.40;99.90
38428;DHT22;24211;49.980;19.776;2022-09-09T03:22:22;19.30;99.90
38428;DHT22;24211;49.980;19.776;2022-09-09T03:24:49;19.30;99.90
38428;DHT22;24211;49.980;19.776;2022-09-09T03:27:17;19.30;99.90
38428;DHT22;24211;49.980;19.776;2022-09-09T03:29:46;19.30;99.90
38428;DHT22;24211;49.980;19.776;2022-09-09T03:32:20;19.20;99.90
38428;DHT22;24211;49.980;19.776;2022-09-09T03:34:49;19.20;99.90
38428;DHT22;24211;49.980;19.776;2022-09-09T03:37:17;19.20;99.90
38428;DHT22;24211;49.980;19.776;2022-09-09T03:39:49;19.20;99.90
38428;DHT22;24211;49.980;19.776;2022-09-09T03:42:18;19.10;99.90
38428;DHT22;24211;49.980;19.776;2022-09-09T03:44:48;19.10;99.90
38428;DHT22;24211;49.980;19.776;2022-09-09T03:47:20;19.10;99.90
38428;DHT22;24211;49.980;19.776;2022-09-09T03:49:51;19.10;99.90
38428;DHT22;24211;49.980;19.776;2022-09-09T03:52:19;19.10;99.90
38428;DHT22;24211;49.980;19.776;2022-09-09T03:54:53;19.10;99.90
38428;DHT22;24211;49.980;19.776;2022-09-09T03:57:21;19.10;99.90
38428;DHT22;24211;49.980;19.776;2022-09-09T03:59:49;19.10;99.90
38428;DHT22;24211;49.980;19.776;2022-09-09T04:02:16;19.10;99.90
38428;DHT22;24211;49.980;19.776;2022-09-09T04:04:44;19.10;99.90
38428;DHT22;24211;49.980;19.776;2022-09-09T04:07:11;19.00;99.90
38428;DHT22;24211;49.980;19.776;2022-09-09T04:09:39;19.00;99.90
38428;DHT22;24211;49.980;19.776;2022-09-09T04:12:07;19.00;99.90
38428;DHT22;24211;49.980;19.776;2022-09-09T04:14:34;19.00;99.90
38428;DHT22;24211;49.980;19.776;2022-09-09T04:17:04;19.00;99.90
38428;DHT22;24211;49.980;19.776;2022-09-09T04:19:33;19.00;99.90
38428;DHT22;24211;49.980;19.776;2022-09-09T04:22:01;19.00;99.90
38428;DHT22;24211;49.980;19.776;2022-09-09T04:24:28;18.90;99.90
38428;DHT22;24211;49.980;19.776;2022-09-09T04:26:57;19.00;99.90
38428;DHT22;24211;49.980;19.776;2022-09-09T04:29:25;19.00;99.90
38428;DHT22;24211;49.980;19.776;2022-09-09T04:31:52;18.90;99.90
38428;DHT22;24211;49.980;19.776;2022-09-09T04:34:19;18.90;99.90
38428;DHT22;24211;49.980;19.776;2022-09-09T04:36:47;18.90;99.90
38428;DHT22;24211;49.980;19.776;2022-09-09T04:39:14;18.90;99.90
38428;DHT22;24211;49.980;19.776;2022-09-09T04:41:41;19.00;99.90
38428;DHT22;24211;49.980;19.776;2022-09-09T04:44:10;19.00;99.90
38428;DHT22;24211;49.980;19.776;2022-09-09T04:46:37;18.90;99.90
38428;DHT22;24211;49.980;19.776;2022-09-09T04:49:05;19.00;99.90
38428;DHT22;24211;49.980;19.776;2022-09-09T04:51:33;19.00;99.90
38428;DHT22;24211;49.980;19.776;2022-09-09T04:54:01;19.10;99.90
38428;DHT22;24211;49.980;19.776;2022-09-09T04:56:30;19.10;99.90
38428;DHT22;24211;49.980;19.776;2022-09-09T04:58:59;19.20;99.90
38428;DHT22;24211;49.980;19.776;2022-09-09T05:01:37;19.20;99.90
38428;DHT22;24211;49.980;19.776;2022-09-09T05:04:05;19.20;99.90
38428;DHT22;24211;49.980;19.776;2022-09-09T05:06:33;19.30;99.90
38428;DHT22;24211;49.980;19.776;2022-09-09T05:09:02;19.30;99.90
38428;DHT22;24211;49.980;19.776;2022-09-09T05:11:32;19.30;99.90
38428;DHT22;24211;49.980;19.776;2022-09-09T05:14:38;19.40;99.90
38428;DHT22;24211;49.980;19.776;2022-09-09T05:17:06;19.50;99.90
38428;DHT22;24211;49.980;19.776;2022-09-09T05:19:37;19.50;99.90
38428;DHT22;24211;49.980;19.776;2022-09-09T05:22:04;19.60;99.90
38428;DHT22;24211;49.980;19.776;2022-09-09T05:24:41;19.60;99.90
38428;DHT22;24211;49.980;19.776;2022-09-09T05:27:09;19.60;99.90
38428;DHT22;24211;49.980;19.776;2022-09-09T05:29:40;19.70;99.90
38428;DHT22;24211;49.980;19.776;2022-09-09T05:32:11;19.70;99.90
38428;DHT22;24211;49.980;19.776;2022-09-09T05:34:43;19.70;99.90
38428;DHT22;24211;49.980;19.776;2022-09-09T05:37:12;19.70;99.90
38428;DHT22;24211;49.980;19.776;2022-09-09T05:39:39;19.70;99.90
38428;DHT22;24211;49.980;19.776;2022-09-09T05:42:06;19.70;99.90
38428;DHT22;24211;49.980;19.776;2022-09-09T05:44:34;19.70;99.90
38428;DHT22;24211;49.980;19.776;2022-09-09T05:47:03;19.70;99.90
38428;DHT22;24211;49.980;19.776;2022-09-09T05:49:30;19.80;99.90
38428;DHT22;24211;49.980;19.776;2022-09-09T05:51:59;19.80;99.90
38428;DHT22;24211;49.980;19.776;2022-09-09T05:54:27;19.90;99.90
38428;DHT22;24211;49.980;19.776;2022-09-09T05:56:54;20.00;99.90
38428;DHT22;24211;49.980;19.776;2022-09-09T05:59:22;20.20;99.90
38428;DHT22;24211;49.980;19.776;2022-09-09T06:01:53;20.30;99.90
38428;DHT22;24211;49.980;19.776;2022-09-09T06:04:34;20.40;99.90
38428;DHT22;24211;49.980;19.776;2022-09-09T06:07:02;20.50;99.90
38428;DHT22;24211;49.980;19.776;2022-09-09T06:09:30;20.70;99.90
38428;DHT22;24211;49.980;19.776;2022-09-09T06:11:58;20.80;99.90
38428;DHT22;24211;49.980;19.776;2022-09-09T06:14:26;20.90;99.90
38428;DHT22;24211;49.980;19.776;2022-09-09T06:16:56;20.90;99.90
38428;DHT22;24211;49.980;19.776;2022-09-09T06:19:28;21.00;99.90
38428;DHT22;24211;49.980;19.776;2022-09-09T06:21:58;21.00;99.90
38428;DHT22;24211;49.980;19.776;2022-09-09T06:24:28;21.10;99.90
38428;DHT22;24211;49.980;19.776;2022-09-09T06:26:58;21.20;99.90
38428;DHT22;24211;49.980;19.776;2022-09-09T06:29:28;21.40;99.90
38428;DHT22;24211;49.980;19.776;2022-09-09T06:31:56;21.60;99.90
38428;DHT22;24211;49.980;19.776;2022-09-09T06:34:27;21.70;99.90
38428;DHT22;24211;49.980;19.776;2022-09-09T06:36:57;21.80;99.90
38428;DHT22;24211;49.980;19.776;2022-09-09T06:39:29;21.90;99.90
38428;DHT22;24211;49.980;19.776;2022-09-09T06:41:57;22.00;99.90
38428;DHT22;24211;49.980;19.776;2022-09-09T06:44:52;22.20;99.90
38428;DHT22;24211;49.980;19.776;2022-09-09T06:47:36;22.40;99.90
38428;DHT22;24211;49.980;19.776;2022-09-09T06:50:04;22.50;99.90
38428;DHT22;24211;49.980;19.776;2022-09-09T06:52:34;22.60;99.90
38428;DHT22;24211;49.980;19.776;2022-09-09T06:55:02;22.80;99.90
38428;DHT22;24211;49.980;19.776;2022-09-09T06:57:32;22.90;99.90
38428;DHT22;24211;49.980;19.776;2022-09-09T07:00:08;23.10;99.90
38428;DHT22;24211;49.980;19.776;2022-09-09T07:02:36;23.00;99.90
38428;DHT22;24211;49.980;19.776;2022-09-09T07:05:07;23.10;99.90
38428;DHT22;24211;49.980;19.776;2022-09-09T07:07:35;23.10;99.90
38428;DHT22;24211;49.980;19.776;2022-09-09T07:10:03;23.10;99.90
38428;DHT22;24211;49.980;19.776;2022-09-09T07:12:31;23.20;99.90
38428;DHT22;24211;49.980;19.776;2022-09-09T07:14:59;23.30;99.90
38428;DHT22;24211;49.980;19.776;2022-09-09T07:17:28;23.40;99.90
38428;DHT22;24211;49.980;19.776;2022-09-09T07:19:57;23.60;99.90
38428;DHT22;24211;49.980;19.776;2022-09-09T07:22:25;23.70;99.90
38428;DHT22;24211;49.980;19.776;2022-09-09T07:24:52;23.70;99.90
38428;DHT22;24211;49.980;19.776;2022-09-09T07:27:19;23.90;99.90
38428;DHT22;24211;49.980;19.776;2022-09-09T07:29:48;24.00;99.90
38428;DHT22;24211;49.980;19.776;2022-09-09T07:32:16;24.10;99.90
38428;DHT22;24211;49.980;19.776;2022-09-09T07:34:44;24.20;99.90
38428;DHT22;24211;49.980;19.776;2022-09-09T07:37:13;24.20;99.90
38428;DHT22;24211;49.980;19.776;2022-09-09T07:39:43;24.10;99.90
38428;DHT22;24211;49.980;19.776;2022-09-09T07:42:11;24.20;99.90
38428;DHT22;24211;49.980;19.776;2022-09-09T07:44:39;24.30;99.90
38428;DHT22;24211;49.980;19.776;2022-09-09T07:47:13;24.60;99.90
38428;DHT22;24211;49.980;19.776;2022-09-09T07:49:48;24.80;99.90
38428;DHT22;24211;49.980;19.776;2022-09-09T07:52:22;24.80;99.90
38428;DHT22;24211;49.980;19.776;2022-09-09T07:54:53;25.00;99.90
38428;DHT22;24211;49.980;19.776;2022-09-09T07:57:20;25.20;99.90
38428;DHT22;24211;49.980;19.776;2022-09-09T07:59:49;25.40;99.90
38428;DHT22;24211;49.980;19.776;2022-09-09T08:02:17;25.70;99.90
38428;DHT22;24211;49.980;19.776;2022-09-09T08:04:44;26.00;99.90
38428;DHT22;24211;49.980;19.776;2022-09-09T08:07:14;26.20;99.90
38428;DHT22;24211;49.980;19.776;2022-09-09T08:09:48;26.50;99.90
38428;DHT22;24211;49.980;19.776;2022-09-09T08:12:21;26.70;99.90
38428;DHT22;24211;49.980;19.776;2022-09-09T08:14:49;26.50;99.90
38428;DHT22;24211;49.980;19.776;2022-09-09T08:17:19;26.50;99.90
38428;DHT22;24211;49.980;19.776;2022-09-09T08:19:47;26.70;99.90
38428;DHT22;24211;49.980;19.776;2022-09-09T08:22:19;26.60;99.90
38428;DHT22;24211;49.980;19.776;2022-09-09T08:24:47;26.70;99.90
38428;DHT22;24211;49.980;19.776;2022-09-09T08:27:14;27.00;99.90
38428;DHT22;24211;49.980;19.776;2022-09-09T08:29:42;27.10;99.90
38428;DHT22;24211;49.980;19.776;2022-09-09T08:32:09;27.20;99.90
38428;DHT22;24211;49.980;19.776;2022-09-09T08:34:38;27.10;99.90
38428;DHT22;24211;49.980;19.776;2022-09-09T08:37:11;27.30;99.90
38428;DHT22;24211;49.980;19.776;2022-09-09T08:39:40;27.60;99.90
38428;DHT22;24211;49.980;19.776;2022-09-09T08:45:03;28.00;99.80
38428;DHT22;24211;49.980;19.776;2022-09-09T08:50:41;28.10;98.90
38428;DHT22;24211;49.980;19.776;2022-09-09T08:55:55;28.50;98.40
38428;DHT22;24211;49.980;19.776;2022-09-09T08:58:50;28.60;98.40
38428;DHT22;24211;49.980;19.776;2022-09-09T09:01:51;28.80;97.90
38428;DHT22;24211;49.980;19.776;2022-09-09T09:10:54;29.50;97.50
38428;DHT22;24211;49.980;19.776;2022-09-09T09:13:50;29.80;96.80
38428;DHT22;24211;49.980;19.776;2022-09-09T09:16:38;29.80;96.90
38428;DHT22;24211;49.980;19.776;2022-09-09T09:19:14;30.20;96.90
38428;DHT22;24211;49.980;19.776;2022-09-09T09:21:53;30.40;95.90
38428;DHT22;24211;49.980;19.776;2022-09-09T09:27:16;30.10;95.50
38428;DHT22;24211;49.980;19.776;2022-09-09T09:29:54;30.10;95.50
38428;DHT22;24211;49.980;19.776;2022-09-09T09:35:50;30.10;95.60
38428;DHT22;24211;49.980;19.776;2022-09-09T09:38:24;30.30;95.30
38428;DHT22;24211;49.980;19.776;2022-09-09T09:41:13;30.30;95.50
38428;DHT22;24211;49.980;19.776;2022-09-09T09:43:41;30.50;95.60
38428;DHT22;24211;49.980;19.776;2022-09-09T09:46:22;30.80;95.40
38428;DHT22;24211;49.980;19.776;2022-09-09T09:48:59;31.20;95.10
38428;DHT22;24211;49.980;19.776;2022-09-09T09:51:30;31.40;95.00
38428;DHT22;24211;49.980;19.776;2022-09-09T09:54:16;31.60;94.70
38428;DHT22;24211;49.980;19.776;2022-09-09T09:57:11;31.90;94.30
38428;DHT22;24211;49.980;19.776;2022-09-09T09:59:42;32.00;93.30
38428;DHT22;24211;49.980;19.776;2022-09-09T10:02:41;32.10;93.60
38428;DHT22;24211;49.980;19.776;2022-09-09T10:05:22;32.00;93.80
38428;DHT22;24211;49.980;19.776;2022-09-09T10:08:04;32.20;93.80
38428;DHT22;24211;49.980;19.776;2022-09-09T10:10:53;32.20;93.40
38428;DHT22;24211;49.980;19.776;2022-09-09T10:17:54;32.10;93.50
38428;DHT22;24211;49.980;19.776;2022-09-09T10:20:29;31.90;93.40
38428;DHT22;24211;49.980;19.776;2022-09-09T10:23:19;31.70;93.80
38428;DHT22;24211;49.980;19.776;2022-09-09T10:26:08;31.50;93.90
38428;DHT22;24211;49.980;19.776;2022-09-09T10:35:02;31.40;93.50
38428;DHT22;24211;49.980;19.776;2022-09-09T10:52:46;32.20;92.60
38428;DHT22;24211;49.980;19.776;2022-09-09T10:55:35;32.50;90.80
38428;DHT22;24211;49.980;19.776;2022-09-09T10:58:12;32.20;91.70
38428;DHT22;24211;49.980;19.776;2022-09-09T11:00:47;32.00;91.70
38428;DHT22;24211;49.980;19.776;2022-09-09T11:03:28;32.10;91.70
38428;DHT22;24211;49.980;19.776;2022-09-09T11:06:06;32.20;91.80
38428;DHT22;24211;49.980;19.776;2022-09-09T11:08:42;32.30;91.20
38428;DHT22;24211;49.980;19.776;2022-09-09T11:11:17;32.50;90.80
38428;DHT22;24211;49.980;19.776;2022-09-09T11:14:28;32.80;90.60
38428;DHT22;24211;49.980;19.776;2022-09-09T11:17:15;33.10;90.70
38428;DHT22;24211;49.980;19.776;2022-09-09T11:19:46;33.60;89.80
38428;DHT22;24211;49.980;19.776;2022-09-09T11:42:39;32.80;87.80
38428;DHT22;24211;49.980;19.776;2022-09-09T11:45:19;32.70;89.30
38428;DHT22;24211;49.980;19.776;2022-09-09T11:47:58;32.70;89.70
38428;DHT22;24211;49.980;19.776;2022-09-09T11:50:30;32.80;89.30
38428;DHT22;24211;49.980;19.776;2022-09-09T11:55:41;33.10;89.20
38428;DHT22;24211;49.980;19.776;2022-09-09T12:00:49;33.40;87.70
38428;DHT22;24211;49.980;19.776;2022-09-09T12:03:46;33.50;88.10
38428;DHT22;24211;49.980;19.776;2022-09-09T12:06:26;33.70;87.90
38428;DHT22;24211;49.980;19.776;2022-09-09T12:09:16;33.90;87.80
38428;DHT22;24211;49.980;19.776;2022-09-09T12:11:48;34.00;86.70
38428;DHT22;24211;49.980;19.776;2022-09-09T12:17:19;34.30;85.90
38428;DHT22;24211;49.980;19.776;2022-09-09T12:20:13;34.40;85.90
38428;DHT22;24211;49.980;19.776;2022-09-09T12:32:08;34.70;85.20
38428;DHT22;24211;49.980;19.776;2022-09-09T12:34:41;34.90;84.30
38428;DHT22;24211;49.980;19.776;2022-09-09T12:37:33;35.00;82.90
38428;DHT22;24211;49.980;19.776;2022-09-09T12:40:23;35.00;82.20
38428;DHT22;24211;49.980;19.776;2022-09-09T12:42:53;35.00;82.80
38428;DHT22;24211;49.980;19.776;2022-09-09T12:45:26;35.10;82.50
38428;DHT22;24211;49.980;19.776;2022-09-09T12:48:00;35.00;82.40
38428;DHT22;24211;49.980;19.776;2022-09-09T12:50:36;35.00;81.90
38428;DHT22;24211;49.980;19.776;2022-09-09T12:53:15;35.10;80.30
38428;DHT22;24211;49.980;19.776;2022-09-09T12:55:59;35.20;80.20
38428;DHT22;24211;49.980;19.776;2022-09-09T12:58:30;35.10;80.10
38428;DHT22;24211;49.980;19.776;2022-09-09T13:01:02;34.90;81.10
38428;DHT22;24211;49.980;19.776;2022-09-09T13:03:42;34.90;81.50
38428;DHT22;24211;49.980;19.776;2022-09-09T13:06:16;34.90;81.30
38428;DHT22;24211;49.980;19.776;2022-09-09T13:09:00;34.90;80.90
38428;DHT22;24211;49.980;19.776;2022-09-09T13:11:38;34.80;80.20
38428;DHT22;24211;49.980;19.776;2022-09-09T13:14:39;34.60;81.00
38428;DHT22;24211;49.980;19.776;2022-09-09T13:17:23;34.50;81.10
38428;DHT22;24211;49.980;19.776;2022-09-09T13:19:52;34.60;81.40
38428;DHT22;24211;49.980;19.776;2022-09-09T13:22:30;34.80;80.20
38428;DHT22;24211;49.980;19.776;2022-09-09T13:27:41;35.00;78.20
38428;DHT22;24211;49.980;19.776;2022-09-09T13:30:34;35.00;78.60
38428;DHT22;24211;49.980;19.776;2022-09-09T13:38:17;35.20;78.50
38428;DHT22;24211;49.980;19.776;2022-09-09T13:41:03;35.20;78.20
38428;DHT22;24211;49.980;19.776;2022-09-09T13:43:44;35.30;77.00
38428;DHT22;24211;49.980;19.776;2022-09-09T13:46:36;35.20;76.30
38428;DHT22;24211;49.980;19.776;2022-09-09T13:51:41;35.00;76.90
38428;DHT22;24211;49.980;19.776;2022-09-09T13:54:15;35.10;76.20
38428;DHT22;24211;49.980;19.776;2022-09-09T13:56:44;35.10;76.80
38428;DHT22;24211;49.980;19.776;2022-09-09T13:59:18;35.10;76.80
38428;DHT22;24211;49.980;19.776;2022-09-09T14:02:09;35.20;76.10
38428;DHT22;24211;49.980;19.776;2022-09-09T14:04:36;35.20;75.30
38428;DHT22;24211;49.980;19.776;2022-09-09T14:07:04;35.20;74.10
38428;DHT22;24211;49.980;19.776;2022-09-09T14:09:31;35.20;73.90
38428;DHT22;24211;49.980;19.776;2022-09-09T14:11:58;35.00;73.70
38428;DHT22;24211;49.980;19.776;2022-09-09T14:14:26;34.80;73.80
38428;DHT22;24211;49.980;19.776;2022-09-09T14:16:54;34.50;74.40
38428;DHT22;24211;49.980;19.776;2022-09-09T14:19:21;34.30;73.40
38428;DHT22;24211;49.980;19.776;2022-09-09T14:21:48;34.20;74.50
38428;DHT22;24211;49.980;19.776;2022-09-09T14:24:16;34.00;74.00
38428;DHT22;24211;49.980;19.776;2022-09-09T14:26:44;33.90;73.90
38428;DHT22;24211;49.980;19.776;2022-09-09T14:29:12;33.80;74.70
38428;DHT22;24211;49.980;19.776;2022-09-09T14:31:39;33.60;73.90
38428;DHT22;24211;49.980;19.776;2022-09-09T14:34:06;33.60;74.40
38428;DHT22;24211;49.980;19.776;2022-09-09T14:36:33;33.30;76.20
38428;DHT22;24211;49.980;19.776;2022-09-09T14:39:03;33.10;76.10
38428;DHT22;24211;49.980;19.776;2022-09-09T14:41:31;33.00;75.90
38428;DHT22;24211;49.980;19.776;2022-09-09T14:43:58;32.90;76.40
38428;DHT22;24211;49.980;19.776;2022-09-09T14:46:27;32.80;76.20
38428;DHT22;24211;49.980;19.776;2022-09-09T14:48:54;32.60;78.40
38428;DHT22;24211;49.980;19.776;2022-09-09T14:51:23;32.40;78.20
38428;DHT22;24211;49.980;19.776;2022-09-09T14:53:53;32.30;78.20
38428;DHT22;24211;49.980;19.776;2022-09-09T14:56:25;32.10;77.90
38428;DHT22;24211;49.980;19.776;2022-09-09T14:58:55;32.10;79.10
38428;DHT22;24211;49.980;19.776;2022-09-09T15:01:24;32.00;78.00
38428;DHT22;24211;49.980;19.776;2022-09-09T15:04:00;31.90;78.40
38428;DHT22;24211;49.980;19.776;2022-09-09T15:06:31;31.80;79.30
38428;DHT22;24211;49.980;19.776;2022-09-09T15:09:02;31.60;78.90
38428;DHT22;24211;49.980;19.776;2022-09-09T15:11:33;31.60;77.90
38428;DHT22;24211;49.980;19.776;2022-09-09T15:14:07;31.40;79.60
38428;DHT22;24211;49.980;19.776;2022-09-09T15:16:36;31.30;79.80
38428;DHT22;24211;49.980;19.776;2022-09-09T15:19:03;31.20;80.10
38428;DHT22;24211;49.980;19.776;2022-09-09T15:21:33;31.30;78.70
38428;DHT22;24211;49.980;19.776;2022-09-09T15:24:03;31.20;78.30
38428;DHT22;24211;49.980;19.776;2022-09-09T15:26:31;31.10;80.30
38428;DHT22;24211;49.980;19.776;2022-09-09T15:28:58;31.00;80.10
38428;DHT22;24211;49.980;19.776;2022-09-09T15:31:28;30.80;81.00
38428;DHT22;24211;49.980;19.776;2022-09-09T15:33:59;30.70;81.30
38428;DHT22;24211;49.980;19.776;2022-09-09T15:36:35;30.60;81.10
38428;DHT22;24211;49.980;19.776;2022-09-09T15:39:07;30.50;81.70
38428;DHT22;24211;49.980;19.776;2022-09-09T15:41:40;30.40;81.70
38428;DHT22;24211;49.980;19.776;2022-09-09T15:44:08;30.40;82.20
38428;DHT22;24211;49.980;19.776;2022-09-09T15:46:58;30.30;82.40
38428;DHT22;24211;49.980;19.776;2022-09-09T15:49:26;30.30;82.60
38428;DHT22;24211;49.980;19.776;2022-09-09T15:51:58;30.20;82.80
38428;DHT22;24211;49.980;19.776;2022-09-09T15:54:34;30.20;83.30
38428;DHT22;24211;49.980;19.776;2022-09-09T15:57:07;30.10;83.30
38428;DHT22;24211;49.980;19.776;2022-09-09T15:59:38;30.00;83.20
38428;DHT22;24211;49.980;19.776;2022-09-09T16:02:08;30.00;83.40
38428;DHT22;24211;49.980;19.776;2022-09-09T16:04:36;30.00;83.60
38428;DHT22;24211;49.980;19.776;2022-09-09T16:07:05;29.90;83.70
38428;DHT22;24211;49.980;19.776;2022-09-09T16:09:33;29.90;83.70
38428;DHT22;24211;49.980;19.776;2022-09-09T16:12:03;29.90;84.60
38428;DHT22;24211;49.980;19.776;2022-09-09T16:14:35;29.80;84.30
38428;DHT22;24211;49.980;19.776;2022-09-09T16:17:03;29.80;84.30
38428;DHT22;24211;49.980;19.776;2022-09-09T16:19:32;29.70;84.70
38428;DHT22;24211;49.980;19.776;2022-09-09T16:22:00;29.60;84.80
38428;DHT22;24211;49.980;19.776;2022-09-09T16:24:27;29.50;84.90
38428;DHT22;24211;49.980;19.776;2022-09-09T16:26:55;29.50;85.10
38428;DHT22;24211;49.980;19.776;2022-09-09T16:29:23;29.40;85.50
38428;DHT22;24211;49.980;19.776;2022-09-09T16:31:53;29.30;85.50
38428;DHT22;24211;49.980;19.776;2022-09-09T16:34:27;29.20;85.70
38428;DHT22;24211;49.980;19.776;2022-09-09T16:36:54;29.10;85.80
38428;DHT22;24211;49.980;19.776;2022-09-09T16:39:23;29.00;85.90
38428;DHT22;24211;49.980;19.776;2022-09-09T16:41:50;28.90;85.80
38428;DHT22;24211;49.980;19.776;2022-09-09T16:44:18;28.80;85.80
38428;DHT22;24211;49.980;19.776;2022-09-09T16:46:47;28.70;85.90
38428;DHT22;24211;49.980;19.776;2022-09-09T16:49:16;28.50;85.80
38428;DHT22;24211;49.980;19.776;2022-09-09T16:51:48;28.50;86.00
38428;DHT22;24211;49.980;19.776;2022-09-09T16:54:20;28.40;86.20
38428;DHT22;24211;49.980;19.776;2022-09-09T16:56:48;28.30;86.50
38428;DHT22;24211;49.980;19.776;2022-09-09T16:59:18;28.20;86.70
38428;DHT22;24211;49.980;19.776;2022-09-09T17:01:48;28.10;86.80
38428;DHT22;24211;49.980;19.776;2022-09-09T17:04:19;28.10;87.00
38428;DHT22;24211;49.980;19.776;2022-09-09T17:06:52;28.00;87.20
38428;DHT22;24211;49.980;19.776;2022-09-09T17:09:22;27.80;87.20
38428;DHT22;24211;49.980;19.776;2022-09-09T17:11:50;27.70;87.50
38428;DHT22;24211;49.980;19.776;2022-09-09T17:14:20;27.60;87.70
38428;DHT22;24211;49.980;19.776;2022-09-09T17:16:50;27.50;87.90
38428;DHT22;24211;49.980;19.776;2022-09-09T17:19:18;27.40;88.00
38428;DHT22;24211;49.980;19.776;2022-09-09T17:21:46;27.40;88.30
38428;DHT22;24211;49.980;19.776;2022-09-09T17:24:34;27.30;88.40
38428;DHT22;24211;49.980;19.776;2022-09-09T17:27:05;27.20;88.60
38428;DHT22;24211;49.980;19.776;2022-09-09T17:29:33;27.10;88.70
38428;DHT22;24211;49.980;19.776;2022-09-09T17:32:03;27.00;88.70
38428;DHT22;24211;49.980;19.776;2022-09-09T17:34:33;26.90;88.90
38428;DHT22;24211;49.980;19.776;2022-09-09T17:37:01;26.80;89.00
38428;DHT22;24211;49.980;19.776;2022-09-09T17:39:29;26.80;89.20
38428;DHT22;24211;49.980;19.776;2022-09-09T17:41:56;26.70;89.30
38428;DHT22;24211;49.980;19.776;2022-09-09T17:44:24;26.60;89.40
38428;DHT22;24211;49.980;19.776;2022-09-09T17:46:51;26.60;89.60
38428;DHT22;24211;49.980;19.776;2022-09-09T17:49:19;26.50;89.80
38428;DHT22;24211;49.980;19.776;2022-09-09T17:51:46;26.40;89.90
38428;DHT22;24211;49.980;19.776;2022-09-09T17:54:16;26.30;90.00
38428;DHT22;24211;49.980;19.776;2022-09-09T17:56:46;26.20;90.10
38428;DHT22;24211;49.980;19.776;2022-09-09T17:59:16;26.20;90.10
38428;DHT22;24211;49.980;19.776;2022-09-09T18:01:46;26.10;90.20
38428;DHT22;24211;49.980;19.776;2022-09-09T18:04:16;26.00;90.20